Dirección General De Aeronáutica Civil

Dirección Meteorológica de Chile - Servicios Climáticos

Informe General de Control de Calidad de la Estación

Listado de niveles de control de calidad para algunos parámetros
Estación San Pablo - DASA (330114)
Fecha de Revisión de los datos :

Elementos

Registros Niveles de Control Total
Nivel 0 Nivel 1 Nivel 2 Nivel 3 Errores Porcentaje
01 Temperatura del Aire Seco 79.563 0 . 1 0.00 % 0 . 0 . 1 0.00 %
02 Temperatura de Rocío 79.593 0 . 0 . 0 . 0 . 0 0.00 %
03 Humedad Relativa del Aire 79.595 0 . 0 . 0 . 0 . 0 0.00 %
04 Temperatura Máxima PM 2.925 0 . 0 . 26 0.89 % 0 . 26 0.89 %
05 Temperatura Mínima AM 2.906 0 . 0 . 1 0.03 % 0 . 1 0.03 %
06 Viento a 10 m. de Altura 79.610 0 . 6 0.01 % 0 . 0 . 6 0.01 %
07 Agua Caida, Acumulada 6 Horas 13.271 0 . 0 . 0 . 0 . 0 0.00 %
08 Presión Atm. a Nivel de Estación (QFE) 79.596 0 . 0 . 0 . 0 . 0 0.00 %
09 Presión Atm. a Nivel Medio del Mar (QFF) 79.596 0 . 0 . 0 . 0 . 0 0.00 %
10 Presión Atm. Estándar OACI (QNH) 79.596 0 . 0 . 0 . 0 . 0 0.00 %

Totales

576.251 . 0.0000 % . 0.0012 % . 0.0047 % . 0.0000 % 34 0.0059 %

Detalle de Errores Encontrados

Nivel Fecha del Dato Descripción Información Error Fecha Ingreso
1 2014-04-13 15:00:00 Viento calma fue mal ingresado. dd = 0 - ff = 2 2014-04-13 21:23:00
1 2014-06-22 17:00:00 Viento calma fue mal ingresado. dd = 0 - ff = 1 2014-06-22 17:26:00
1 2014-07-10 11:00:00 Viento calma fue mal ingresado. dd = 0 - ff = 1 2014-07-10 11:26:00
1 2014-07-25 05:00:00 Viento calma fue mal ingresado. dd = 0 - ff = 2 2014-07-25 05:17:00
1 2014-08-31 15:00:00 Viento calma fue mal ingresado. dd = 0 - ff = 4 2014-08-31 15:17:00
1 2014-09-26 06:00:00 Viento calma fue mal ingresado. dd = 0 - ff = 1 2014-09-27 07:37:00
1 2023-06-25 03:00:00 Ts debe ser mayor o igual a Td Ts=12.0 - Td=12.1 2023-06-25 03:08:00
Errores del Nivel 7
Nivel Fecha del Dato Descripción Información Error Fecha Ingreso
2 2013-11-07 00:00:00 Temperatura 22.2 del 06-11-2013 20:00, Mayor que la Máxima 22.1 07-11-2013 00:00 22.2 -- 22.1 2019-07-29 20:04:00
2 2013-12-09 00:00:00 Temperatura 21.1 del 08-12-2013 20:00, Mayor que la Máxima 19.5 09-12-2013 00:00 21.1 -- 19.5 2019-07-29 20:32:00
2 2013-12-27 00:00:00 Temperatura 30.7 del 26-12-2013 20:00, Mayor que la Máxima 20.2 27-12-2013 00:00 30.7 -- 20.2 2019-07-29 20:50:00
2 2014-01-20 00:00:00 Temperatura 29.7 del 19-01-2014 19:00, Mayor que la Máxima 25.9 20-01-2014 00:00 29.7 -- 25.9 2019-07-30 16:30:00
2 2014-02-12 00:00:00 Temperatura 30.5 del 11-02-2014 20:00, Mayor que la Máxima 20.6 12-02-2014 00:00 30.5 -- 20.6 2014-02-12 00:23:00
2 2014-03-17 00:00:00 Temperatura 26.9 del 16-03-2014 20:00, Mayor que la Máxima 20.0 17-03-2014 00:00 26.9 -- 20.0 2014-03-17 00:23:00
2 2014-04-07 00:00:00 Temperatura 16.2 del 06-04-2014 19:00, Mayor que la Máxima 15.3 07-04-2014 00:00 16.2 -- 15.3 2014-04-07 00:23:00
2 2014-05-19 00:00:00 Temperatura 21.8 del 18-05-2014 19:00, Mayor que la Máxima 16.4 19-05-2014 00:00 21.8 -- 16.4 2014-05-19 00:24:00
2 2014-06-23 00:00:00 Temperatura 11.8 del 22-06-2014 20:00, Mayor que la Máxima 7.9 23-06-2014 00:00 11.8 -- 7.9 2014-06-23 00:26:00
2 2014-07-24 00:00:00 Temperatura 12.2 del 23-07-2014 20:00, Mayor que la Máxima 8.4 24-07-2014 00:00 12.2 -- 8.4 2014-07-24 00:24:00
2 2014-08-11 00:00:00 Temperatura 12.8 del 10-08-2014 21:00, Mayor que la Máxima 8.5 11-08-2014 00:00 12.8 -- 8.5 2014-08-11 00:24:00
2 2016-06-14 00:00:00 Temperatura 14.8 del 13-06-2016 17:00, Mayor que la Máxima 14.3 14-06-2016 00:00 14.8 -- 14.3 2019-07-30 20:17:00
2 2016-08-26 00:00:00 Temperatura 19.4 del 25-08-2016 20:00, Mayor que la Máxima 13.1 26-08-2016 00:00 19.4 -- 13.1 2019-07-30 20:17:00
2 2017-10-26 00:00:00 Temperatura 25.5 del 25-10-2017 19:00, Mayor que la Máxima 19.2 26-10-2017 00:00 25.5 -- 19.2 2017-10-26 00:15:00
2 2017-11-01 00:00:00 Temperatura 20.6 del 31-10-2017 19:00, Mayor que la Máxima 18.1 01-11-2017 00:00 20.6 -- 18.1 2017-11-01 00:15:00
2 2019-04-12 00:00:00 Temperatura 24.8 del 11-04-2019 19:00, Mayor que la Máxima 19.5 12-04-2019 00:00 24.8 -- 19.5 2019-05-14 20:13:00
2 2019-04-18 00:00:00 Temperatura 28.8 del 17-04-2019 19:00, Mayor que la Máxima 20.8 18-04-2019 00:00 28.8 -- 20.8 2019-05-14 20:13:00
2 2019-04-21 00:00:00 Temperatura 18.2 del 20-04-2019 21:00, Mayor que la Máxima 12.9 21-04-2019 00:00 18.2 -- 12.9 2019-05-14 20:13:00
2 2019-04-24 00:00:00 Temperatura 17.1 del 23-04-2019 18:00, Mayor que la Máxima 15.0 24-04-2019 00:00 17.1 -- 15.0 2019-05-14 20:13:00
2 2019-04-30 00:00:00 Temperatura 24.2 del 29-04-2019 18:00, Mayor que la Máxima 19.4 30-04-2019 00:00 24.2 -- 19.4 2019-05-14 20:14:00
2 2019-05-03 00:00:00 Temperatura 24.1 del 02-05-2019 18:00, Mayor que la Máxima 18.9 03-05-2019 00:00 24.1 -- 18.9 2019-05-14 20:05:00
2 2019-05-06 00:00:00 Temperatura 20.4 del 05-05-2019 19:00, Mayor que la Máxima 15.6 06-05-2019 00:00 20.4 -- 15.6 2019-05-14 20:05:00
2 2019-05-12 00:00:00 Temperatura 20.1 del 11-05-2019 20:00, Mayor que la Máxima 12.6 12-05-2019 00:00 20.1 -- 12.6 2019-05-14 20:02:00
2 2021-04-15 00:00:00 Temperatura 25.9 del 14-04-2021 18:00, Mayor que la Máxima 25.3 15-04-2021 00:00 25.9 -- 25.3 2021-04-15 00:21:00
2 2021-12-01 00:00:00 Temperatura 25.2 del 30-11-2021 19:00, Mayor que la Máxima 24.9 01-12-2021 00:00 25.2 -- 24.9 2021-12-01 00:20:00
2 2022-06-21 00:00:00 Temperatura 11.6 del 20-06-2022 18:00, Mayor que la Máxima 10.7 21-06-2022 00:00 11.6 -- 10.7 2022-06-21 00:15:00
2 2021-11-20 12:00:00 Temperatura 10.4 del 20-11-2021 08:00, Menor que la Mínima 14.1 20-11-2021 12:00 10.4 -- 14.1 2021-11-20 12:41:00
Errores del Nivel 27
Informe generado el 05-03-2024 10:46
Requerimiento: RE6001